sensor_id;sensor_type;location;lat;lon;timestamp;P1;durP1;ratioP1;P2;durP2;ratioP2
57969;SDS011;43777;42.656;23.264;2022-12-18T00:00:30;6.07;;;5.40;;
57969;SDS011;43777;42.656;23.264;2022-12-18T00:02:56;6.68;;;5.13;;
57969;SDS011;43777;42.656;23.264;2022-12-18T00:05:22;6.03;;;5.20;;
57969;SDS011;43777;42.656;23.264;2022-12-18T00:07:48;6.40;;;5.70;;
57969;SDS011;43777;42.656;23.264;2022-12-18T00:10:14;6.25;;;5.47;;
57969;SDS011;43777;42.656;23.264;2022-12-18T00:12:44;7.00;;;5.63;;
57969;SDS011;43777;42.656;23.264;2022-12-18T00:15:10;6.00;;;5.40;;
57969;SDS011;43777;42.656;23.264;2022-12-18T00:17:36;6.50;;;5.45;;
57969;SDS011;43777;42.656;23.264;2022-12-18T00:20:02;6.88;;;5.55;;
57969;SDS011;43777;42.656;23.264;2022-12-18T00:22:28;6.38;;;5.60;;
57969;SDS011;43777;42.656;23.264;2022-12-18T00:24:55;6.47;;;5.65;;
57969;SDS011;43777;42.656;23.264;2022-12-18T00:27:21;5.88;;;5.28;;
57969;SDS011;43777;42.656;23.264;2022-12-18T00:29:47;6.75;;;5.57;;
57969;SDS011;43777;42.656;23.264;2022-12-18T00:32:14;6.50;;;5.38;;
57969;SDS011;43777;42.656;23.264;2022-12-18T00:34:40;6.03;;;5.43;;
57969;SDS011;43777;42.656;23.264;2022-12-18T00:37:06;7.28;;;5.78;;
57969;SDS011;43777;42.656;23.264;2022-12-18T00:39:32;7.75;;;5.97;;
57969;SDS011;43777;42.656;23.264;2022-12-18T00:41:58;7.30;;;6.20;;
57969;SDS011;43777;42.656;23.264;2022-12-18T00:44:42;6.65;;;5.50;;
57969;SDS011;43777;42.656;23.264;2022-12-18T00:47:08;5.82;;;5.22;;
57969;SDS011;43777;42.656;23.264;2022-12-18T00:49:34;8.20;;;6.10;;
57969;SDS011;43777;42.656;23.264;2022-12-18T00:52:00;7.15;;;5.97;;
57969;SDS011;43777;42.656;23.264;2022-12-18T00:54:26;8.13;;;6.20;;
57969;SDS011;43777;42.656;23.264;2022-12-18T00:56:53;6.90;;;6.03;;
57969;SDS011;43777;42.656;23.264;2022-12-18T00:59:20;6.75;;;5.65;;
57969;SDS011;43777;42.656;23.264;2022-12-18T01:01:46;8.18;;;6.68;;
57969;SDS011;43777;42.656;23.264;2022-12-18T01:04:12;7.63;;;6.78;;
57969;SDS011;43777;42.656;23.264;2022-12-18T01:06:38;7.55;;;6.15;;
57969;SDS011;43777;42.656;23.264;2022-12-18T01:09:04;7.88;;;6.43;;
57969;SDS011;43777;42.656;23.264;2022-12-18T01:11:30;7.95;;;6.50;;
57969;SDS011;43777;42.656;23.264;2022-12-18T01:13:59;8.52;;;6.65;;
57969;SDS011;43777;42.656;23.264;2022-12-18T01:16:25;9.45;;;6.40;;
57969;SDS011;43777;42.656;23.264;2022-12-18T01:18:52;7.82;;;6.63;;
57969;SDS011;43777;42.656;23.264;2022-12-18T01:21:19;8.85;;;6.70;;
57969;SDS011;43777;42.656;23.264;2022-12-18T01:23:45;7.70;;;6.65;;
57969;SDS011;43777;42.656;23.264;2022-12-18T01:26:13;8.23;;;7.10;;
57969;SDS011;43777;42.656;23.264;2022-12-18T01:28:39;9.13;;;6.68;;
57969;SDS011;43777;42.656;23.264;2022-12-18T01:31:19;8.43;;;6.88;;
57969;SDS011;43777;42.656;23.264;2022-12-18T01:33:45;8.68;;;7.07;;
57969;SDS011;43777;42.656;23.264;2022-12-18T01:36:15;8.32;;;6.85;;
57969;SDS011;43777;42.656;23.264;2022-12-18T01:38:41;10.52;;;7.25;;
57969;SDS011;43777;42.656;23.264;2022-12-18T01:41:07;8.30;;;7.22;;
57969;SDS011;43777;42.656;23.264;2022-12-18T01:43:56;9.52;;;7.38;;
57969;SDS011;43777;42.656;23.264;2022-12-18T01:46:22;12.50;;;8.65;;
57969;SDS011;43777;42.656;23.264;2022-12-18T01:48:53;14.20;;;9.13;;
57969;SDS011;43777;42.656;23.264;2022-12-18T01:51:20;11.05;;;8.63;;
57969;SDS011;43777;42.656;23.264;2022-12-18T01:53:47;10.23;;;8.52;;
57969;SDS011;43777;42.656;23.264;2022-12-18T01:56:15;10.25;;;8.25;;
57969;SDS011;43777;42.656;23.264;2022-12-18T01:59:04;10.15;;;8.25;;
57969;SDS011;43777;42.656;23.264;2022-12-18T02:01:31;10.18;;;8.02;;
57969;SDS011;43777;42.656;23.264;2022-12-18T02:06:43;8.98;;;7.70;;
57969;SDS011;43777;42.656;23.264;2022-12-18T02:09:13;9.20;;;7.82;;
57969;SDS011;43777;42.656;23.264;2022-12-18T02:11:49;9.98;;;8.13;;
57969;SDS011;43777;42.656;23.264;2022-12-18T02:14:23;8.13;;;7.07;;
57969;SDS011;43777;42.656;23.264;2022-12-18T02:16:52;10.18;;;7.75;;
57969;SDS011;43777;42.656;23.264;2022-12-18T02:22:00;7.47;;;6.60;;
57969;SDS011;43777;42.656;23.264;2022-12-18T02:24:33;6.90;;;5.75;;
57969;SDS011;43777;42.656;23.264;2022-12-18T02:27:07;6.75;;;5.72;;
57969;SDS011;43777;42.656;23.264;2022-12-18T02:29:44;8.18;;;5.90;;
57969;SDS011;43777;42.656;23.264;2022-12-18T02:32:14;7.90;;;6.10;;
57969;SDS011;43777;42.656;23.264;2022-12-18T02:34:41;6.60;;;5.40;;
57969;SDS011;43777;42.656;23.264;2022-12-18T02:37:10;6.70;;;5.65;;
57969;SDS011;43777;42.656;23.264;2022-12-18T02:39:39;6.55;;;5.32;;
57969;SDS011;43777;42.656;23.264;2022-12-18T02:42:06;6.22;;;5.00;;
57969;SDS011;43777;42.656;23.264;2022-12-18T02:44:42;6.57;;;4.90;;
57969;SDS011;43777;42.656;23.264;2022-12-18T02:47:12;6.10;;;5.05;;
57969;SDS011;43777;42.656;23.264;2022-12-18T02:54:51;6.05;;;5.45;;
57969;SDS011;43777;42.656;23.264;2022-12-18T02:57:22;6.15;;;5.43;;
57969;SDS011;43777;42.656;23.264;2022-12-18T03:00:03;7.45;;;6.20;;
57969;SDS011;43777;42.656;23.264;2022-12-18T03:02:33;7.28;;;6.50;;
57969;SDS011;43777;42.656;23.264;2022-12-18T03:10:14;6.05;;;5.32;;
57969;SDS011;43777;42.656;23.264;2022-12-18T03:12:43;6.47;;;5.75;;
57969;SDS011;43777;42.656;23.264;2022-12-18T03:15:45;6.07;;;5.40;;
57969;SDS011;43777;42.656;23.264;2022-12-18T03:18:08;7.13;;;5.28;;
57969;SDS011;43777;42.656;23.264;2022-12-18T03:20:34;6.93;;;5.82;;
57969;SDS011;43777;42.656;23.264;2022-12-18T03:23:12;6.57;;;5.35;;
57969;SDS011;43777;42.656;23.264;2022-12-18T03:25:41;6.38;;;4.95;;
57969;SDS011;43777;42.656;23.264;2022-12-18T03:28:08;6.35;;;5.07;;
57969;SDS011;43777;42.656;23.264;2022-12-18T03:30:36;5.53;;;4.90;;
57969;SDS011;43777;42.656;23.264;2022-12-18T03:36:05;5.80;;;4.78;;
57969;SDS011;43777;42.656;23.264;2022-12-18T03:38:31;5.03;;;4.53;;
57969;SDS011;43777;42.656;23.264;2022-12-18T03:43:30;6.03;;;4.88;;
57969;SDS011;43777;42.656;23.264;2022-12-18T03:46:41;5.50;;;5.00;;
57969;SDS011;43777;42.656;23.264;2022-12-18T03:48:48;5.85;;;4.72;;
57969;SDS011;43777;42.656;23.264;2022-12-18T03:51:18;5.70;;;5.18;;
57969;SDS011;43777;42.656;23.264;2022-12-18T03:53:51;6.57;;;5.18;;
57969;SDS011;43777;42.656;23.264;2022-12-18T03:56:18;6.85;;;4.80;;
57969;SDS011;43777;42.656;23.264;2022-12-18T03:58:46;7.30;;;5.28;;
57969;SDS011;43777;42.656;23.264;2022-12-18T04:01:13;6.15;;;5.20;;
57969;SDS011;43777;42.656;23.264;2022-12-18T04:03:40;6.70;;;5.18;;
57969;SDS011;43777;42.656;23.264;2022-12-18T04:06:07;7.75;;;5.05;;
57969;SDS011;43777;42.656;23.264;2022-12-18T04:08:34;7.30;;;5.72;;
57969;SDS011;43777;42.656;23.264;2022-12-18T04:11:00;6.28;;;5.30;;
57969;SDS011;43777;42.656;23.264;2022-12-18T04:13:28;7.35;;;4.85;;
57969;SDS011;43777;42.656;23.264;2022-12-18T04:15:54;7.28;;;5.60;;
57969;SDS011;43777;42.656;23.264;2022-12-18T04:18:20;7.57;;;5.05;;
57969;SDS011;43777;42.656;23.264;2022-12-18T04:20:46;6.68;;;5.45;;
57969;SDS011;43777;42.656;23.264;2022-12-18T04:23:12;7.15;;;5.70;;
57969;SDS011;43777;42.656;23.264;2022-12-18T04:25:38;7.55;;;5.78;;
57969;SDS011;43777;42.656;23.264;2022-12-18T04:28:04;7.88;;;6.47;;
57969;SDS011;43777;42.656;23.264;2022-12-18T04:30:30;6.82;;;5.38;;
57969;SDS011;43777;42.656;23.264;2022-12-18T04:32:56;7.45;;;5.70;;
57969;SDS011;43777;42.656;23.264;2022-12-18T04:35:22;6.85;;;5.70;;
57969;SDS011;43777;42.656;23.264;2022-12-18T04:37:48;6.90;;;5.45;;
57969;SDS011;43777;42.656;23.264;2022-12-18T04:40:14;8.68;;;6.00;;
57969;SDS011;43777;42.656;23.264;2022-12-18T04:42:40;7.88;;;6.38;;
57969;SDS011;43777;42.656;23.264;2022-12-18T04:45:07;6.85;;;6.07;;
57969;SDS011;43777;42.656;23.264;2022-12-18T04:47:33;6.55;;;5.70;;
57969;SDS011;43777;42.656;23.264;2022-12-18T04:49:59;7.43;;;6.05;;
57969;SDS011;43777;42.656;23.264;2022-12-18T04:52:25;7.80;;;6.35;;
57969;SDS011;43777;42.656;23.264;2022-12-18T04:54:51;8.95;;;6.65;;
57969;SDS011;43777;42.656;23.264;2022-12-18T04:57:17;9.68;;;6.70;;
57969;SDS011;43777;42.656;23.264;2022-12-18T04:59:43;7.72;;;5.78;;
57969;SDS011;43777;42.656;23.264;2022-12-18T05:02:09;9.27;;;6.20;;
57969;SDS011;43777;42.656;23.264;2022-12-18T05:04:36;10.88;;;6.28;;
57969;SDS011;43777;42.656;23.264;2022-12-18T05:07:02;6.90;;;5.57;;
57969;SDS011;43777;42.656;23.264;2022-12-18T05:09:28;7.47;;;5.85;;
57969;SDS011;43777;42.656;23.264;2022-12-18T05:11:54;8.77;;;6.15;;
57969;SDS011;43777;42.656;23.264;2022-12-18T05:14:20;9.95;;;6.03;;
57969;SDS011;43777;42.656;23.264;2022-12-18T05:16:46;7.25;;;5.70;;
57969;SDS011;43777;42.656;23.264;2022-12-18T05:19:12;7.63;;;5.95;;
57969;SDS011;43777;42.656;23.264;2022-12-18T05:21:38;6.57;;;5.63;;
57969;SDS011;43777;42.656;23.264;2022-12-18T05:24:04;7.35;;;6.03;;
57969;SDS011;43777;42.656;23.264;2022-12-18T05:26:30;7.88;;;5.90;;
57969;SDS011;43777;42.656;23.264;2022-12-18T05:28:56;7.47;;;5.90;;
57969;SDS011;43777;42.656;23.264;2022-12-18T05:31:22;8.98;;;6.85;;
57969;SDS011;43777;42.656;23.264;2022-12-18T05:33:48;7.40;;;6.20;;
57969;SDS011;43777;42.656;23.264;2022-12-18T05:36:14;8.80;;;6.93;;
57969;SDS011;43777;42.656;23.264;2022-12-18T05:38:40;9.93;;;7.18;;
57969;SDS011;43777;42.656;23.264;2022-12-18T05:41:07;8.52;;;6.35;;
57969;SDS011;43777;42.656;23.264;2022-12-18T05:43:37;9.15;;;7.40;;
57969;SDS011;43777;42.656;23.264;2022-12-18T05:46:07;8.85;;;6.75;;
57969;SDS011;43777;42.656;23.264;2022-12-18T05:48:34;10.40;;;7.57;;
57969;SDS011;43777;42.656;23.264;2022-12-18T05:51:07;8.88;;;7.25;;
57969;SDS011;43777;42.656;23.264;2022-12-18T05:53:33;10.07;;;7.35;;
57969;SDS011;43777;42.656;23.264;2022-12-18T05:56:01;10.18;;;7.93;;
57969;SDS011;43777;42.656;23.264;2022-12-18T05:58:27;9.77;;;7.47;;
57969;SDS011;43777;42.656;23.264;2022-12-18T06:00:53;10.32;;;7.65;;
57969;SDS011;43777;42.656;23.264;2022-12-18T06:03:19;11.00;;;7.82;;
57969;SDS011;43777;42.656;23.264;2022-12-18T06:05:45;9.90;;;7.38;;
57969;SDS011;43777;42.656;23.264;2022-12-18T06:08:11;11.32;;;8.52;;
57969;SDS011;43777;42.656;23.264;2022-12-18T06:10:38;11.30;;;8.70;;
57969;SDS011;43777;42.656;23.264;2022-12-18T06:13:04;12.65;;;8.90;;
57969;SDS011;43777;42.656;23.264;2022-12-18T06:15:30;11.90;;;8.52;;
57969;SDS011;43777;42.656;23.264;2022-12-18T06:17:56;12.52;;;8.55;;
57969;SDS011;43777;42.656;23.264;2022-12-18T06:20:22;11.05;;;8.60;;
57969;SDS011;43777;42.656;23.264;2022-12-18T06:22:49;9.32;;;7.68;;
57969;SDS011;43777;42.656;23.264;2022-12-18T06:25:15;10.95;;;8.50;;
57969;SDS011;43777;42.656;23.264;2022-12-18T06:27:41;10.07;;;8.80;;
57969;SDS011;43777;42.656;23.264;2022-12-18T06:30:07;12.38;;;9.32;;
57969;SDS011;43777;42.656;23.264;2022-12-18T06:32:33;12.45;;;8.68;;
57969;SDS011;43777;42.656;23.264;2022-12-18T06:34:59;11.40;;;8.95;;
57969;SDS011;43777;42.656;23.264;2022-12-18T06:37:25;13.10;;;9.35;;
57969;SDS011;43777;42.656;23.264;2022-12-18T06:39:52;12.77;;;9.75;;
57969;SDS011;43777;42.656;23.264;2022-12-18T06:42:18;15.63;;;10.48;;
57969;SDS011;43777;42.656;23.264;2022-12-18T06:44:44;14.27;;;10.35;;
57969;SDS011;43777;42.656;23.264;2022-12-18T06:47:10;12.93;;;9.80;;
57969;SDS011;43777;42.656;23.264;2022-12-18T06:49:36;12.93;;;9.05;;
57969;SDS011;43777;42.656;23.264;2022-12-18T06:52:02;12.20;;;9.50;;
57969;SDS011;43777;42.656;23.264;2022-12-18T06:54:28;12.63;;;9.20;;
57969;SDS011;43777;42.656;23.264;2022-12-18T06:56:54;12.27;;;9.52;;
57969;SDS011;43777;42.656;23.264;2022-12-18T06:59:21;12.20;;;9.05;;
57969;SDS011;43777;42.656;23.264;2022-12-18T07:01:47;11.48;;;8.77;;
57969;SDS011;43777;42.656;23.264;2022-12-18T07:04:13;11.07;;;9.05;;
57969;SDS011;43777;42.656;23.264;2022-12-18T07:06:39;13.18;;;8.93;;
57969;SDS011;43777;42.656;23.264;2022-12-18T07:09:05;10.10;;;8.38;;
57969;SDS011;43777;42.656;23.264;2022-12-18T07:11:34;11.30;;;8.75;;
57969;SDS011;43777;42.656;23.264;2022-12-18T07:14:00;12.45;;;8.75;;
57969;SDS011;43777;42.656;23.264;2022-12-18T07:16:26;11.80;;;8.55;;
57969;SDS011;43777;42.656;23.264;2022-12-18T07:18:55;12.05;;;9.10;;
57969;SDS011;43777;42.656;23.264;2022-12-18T07:21:22;11.90;;;9.15;;
57969;SDS011;43777;42.656;23.264;2022-12-18T07:23:48;12.20;;;8.82;;
57969;SDS011;43777;42.656;23.264;2022-12-18T07:26:15;12.73;;;9.25;;
57969;SDS011;43777;42.656;23.264;2022-12-18T07:28:41;12.70;;;9.75;;
57969;SDS011;43777;42.656;23.264;2022-12-18T07:31:09;14.68;;;10.65;;
57969;SDS011;43777;42.656;23.264;2022-12-18T07:33:36;14.68;;;10.50;;
57969;SDS011;43777;42.656;23.264;2022-12-18T07:36:02;13.80;;;9.40;;
57969;SDS011;43777;42.656;23.264;2022-12-18T07:38:29;14.13;;;10.05;;
57969;SDS011;43777;42.656;23.264;2022-12-18T07:41:00;13.55;;;10.20;;
57969;SDS011;43777;42.656;23.264;2022-12-18T07:43:26;13.32;;;10.18;;
57969;SDS011;43777;42.656;23.264;2022-12-18T07:45:52;13.60;;;10.05;;
57969;SDS011;43777;42.656;23.264;2022-12-18T07:48:18;13.77;;;9.70;;
57969;SDS011;43777;42.656;23.264;2022-12-18T07:50:44;14.27;;;9.95;;
57969;SDS011;43777;42.656;23.264;2022-12-18T07:53:10;11.68;;;8.60;;
57969;SDS011;43777;42.656;23.264;2022-12-18T07:55:36;12.63;;;9.05;;
57969;SDS011;43777;42.656;23.264;2022-12-18T07:58:03;11.95;;;9.20;;
57969;SDS011;43777;42.656;23.264;2022-12-18T08:00:29;14.93;;;10.38;;
57969;SDS011;43777;42.656;23.264;2022-12-18T08:02:55;19.38;;;13.40;;
57969;SDS011;43777;42.656;23.264;2022-12-18T08:05:21;19.77;;;13.95;;
57969;SDS011;43777;42.656;23.264;2022-12-18T08:07:47;16.25;;;11.75;;
57969;SDS011;43777;42.656;23.264;2022-12-18T08:10:14;17.92;;;13.18;;
57969;SDS011;43777;42.656;23.264;2022-12-18T08:12:40;20.73;;;15.82;;
57969;SDS011;43777;42.656;23.264;2022-12-18T08:15:06;24.25;;;17.60;;
57969;SDS011;43777;42.656;23.264;2022-12-18T08:17:32;24.10;;;17.67;;
57969;SDS011;43777;42.656;23.264;2022-12-18T08:19:58;22.85;;;15.02;;
57969;SDS011;43777;42.656;23.264;2022-12-18T08:22:24;19.17;;;14.65;;
57969;SDS011;43777;42.656;23.264;2022-12-18T08:24:50;21.38;;;15.15;;
57969;SDS011;43777;42.656;23.264;2022-12-18T08:27:16;18.52;;;12.65;;
57969;SDS011;43777;42.656;23.264;2022-12-18T08:29:42;21.42;;;15.60;;
57969;SDS011;43777;42.656;23.264;2022-12-18T08:32:08;23.83;;;18.00;;
57969;SDS011;43777;42.656;23.264;2022-12-18T08:34:34;26.58;;;18.60;;
57969;SDS011;43777;42.656;23.264;2022-12-18T08:37:00;24.98;;;17.80;;
57969;SDS011;43777;42.656;23.264;2022-12-18T08:39:26;25.60;;;18.35;;
57969;SDS011;43777;42.656;23.264;2022-12-18T08:41:52;27.05;;;19.70;;
57969;SDS011;43777;42.656;23.264;2022-12-18T08:44:37;27.58;;;19.13;;
57969;SDS011;43777;42.656;23.264;2022-12-18T08:47:03;31.67;;;19.80;;
57969;SDS011;43777;42.656;23.264;2022-12-18T08:49:30;29.45;;;19.13;;
57969;SDS011;43777;42.656;23.264;2022-12-18T08:51:56;26.77;;;18.67;;
57969;SDS011;43777;42.656;23.264;2022-12-18T08:54:22;28.77;;;19.40;;
57969;SDS011;43777;42.656;23.264;2022-12-18T08:56:48;28.90;;;21.15;;
57969;SDS011;43777;42.656;23.264;2022-12-18T08:59:15;30.67;;;20.55;;
57969;SDS011;43777;42.656;23.264;2022-12-18T09:01:41;30.75;;;21.70;;
57969;SDS011;43777;42.656;23.264;2022-12-18T09:04:08;30.98;;;20.88;;
57969;SDS011;43777;42.656;23.264;2022-12-18T09:06:34;30.35;;;19.90;;
57969;SDS011;43777;42.656;23.264;2022-12-18T09:09:00;25.98;;;18.40;;
57969;SDS011;43777;42.656;23.264;2022-12-18T09:11:27;30.25;;;20.73;;
57969;SDS011;43777;42.656;23.264;2022-12-18T09:13:55;31.73;;;21.50;;
57969;SDS011;43777;42.656;23.264;2022-12-18T09:16:22;27.95;;;20.17;;
57969;SDS011;43777;42.656;23.264;2022-12-18T09:18:48;30.15;;;20.15;;
57969;SDS011;43777;42.656;23.264;2022-12-18T09:21:16;29.75;;;19.65;;
57969;SDS011;43777;42.656;23.264;2022-12-18T09:23:42;28.73;;;20.17;;
57969;SDS011;43777;42.656;23.264;2022-12-18T09:26:08;28.92;;;19.98;;
57969;SDS011;43777;42.656;23.264;2022-12-18T09:28:35;26.77;;;19.55;;
57969;SDS011;43777;42.656;23.264;2022-12-18T09:31:05;29.30;;;21.27;;
57969;SDS011;43777;42.656;23.264;2022-12-18T09:33:32;29.65;;;20.05;;
57969;SDS011;43777;42.656;23.264;2022-12-18T09:36:00;28.92;;;19.75;;
57969;SDS011;43777;42.656;23.264;2022-12-18T09:38:26;26.92;;;19.77;;
57969;SDS011;43777;42.656;23.264;2022-12-18T09:40:53;29.13;;;19.48;;
57969;SDS011;43777;42.656;23.264;2022-12-18T09:43:23;27.55;;;19.17;;
57969;SDS011;43777;42.656;23.264;2022-12-18T09:45:54;26.90;;;19.33;;
57969;SDS011;43777;42.656;23.264;2022-12-18T09:48:31;26.10;;;18.20;;
57969;SDS011;43777;42.656;23.264;2022-12-18T09:51:02;25.88;;;17.92;;
57969;SDS011;43777;42.656;23.264;2022-12-18T09:53:30;23.38;;;17.33;;
57969;SDS011;43777;42.656;23.264;2022-12-18T09:55:58;23.58;;;16.67;;
57969;SDS011;43777;42.656;23.264;2022-12-18T09:58:34;23.80;;;17.52;;
57969;SDS011;43777;42.656;23.264;2022-12-18T10:01:09;26.67;;;19.02;;
57969;SDS011;43777;42.656;23.264;2022-12-18T10:03:35;27.77;;;18.65;;
57969;SDS011;43777;42.656;23.264;2022-12-18T10:08:37;28.33;;;18.10;;
57969;SDS011;43777;42.656;23.264;2022-12-18T10:13:54;26.08;;;17.42;;
57969;SDS011;43777;42.656;23.264;2022-12-18T10:21:26;23.88;;;16.67;;
57969;SDS011;43777;42.656;23.264;2022-12-18T10:23:59;24.33;;;16.85;;
57969;SDS011;43777;42.656;23.264;2022-12-18T10:26:27;25.88;;;17.00;;
57969;SDS011;43777;42.656;23.264;2022-12-18T10:28:53;24.02;;;17.08;;
57969;SDS011;43777;42.656;23.264;2022-12-18T10:31:22;24.48;;;16.65;;
57969;SDS011;43777;42.656;23.264;2022-12-18T10:33:49;24.83;;;17.20;;
57969;SDS011;43777;42.656;23.264;2022-12-18T10:36:15;25.38;;;16.70;;
57969;SDS011;43777;42.656;23.264;2022-12-18T10:38:41;23.65;;;15.50;;
57969;SDS011;43777;42.656;23.264;2022-12-18T10:43:43;23.77;;;16.02;;
57969;SDS011;43777;42.656;23.264;2022-12-18T10:51:05;20.13;;;14.40;;
57969;SDS011;43777;42.656;23.264;2022-12-18T10:53:33;20.95;;;14.10;;
57969;SDS011;43777;42.656;23.264;2022-12-18T10:55:59;20.67;;;14.13;;
57969;SDS011;43777;42.656;23.264;2022-12-18T10:58:35;21.35;;;14.88;;
57969;SDS011;43777;42.656;23.264;2022-12-18T11:01:15;18.05;;;13.88;;
57969;SDS011;43777;42.656;23.264;2022-12-18T11:03:45;18.48;;;13.35;;
57969;SDS011;43777;42.656;23.264;2022-12-18T11:06:12;18.40;;;13.57;;
57969;SDS011;43777;42.656;23.264;2022-12-18T11:08:40;20.08;;;13.60;;
57969;SDS011;43777;42.656;23.264;2022-12-18T11:11:07;19.50;;;14.30;;
57969;SDS011;43777;42.656;23.264;2022-12-18T11:13:41;21.50;;;13.95;;
57969;SDS011;43777;42.656;23.264;2022-12-18T11:16:18;20.27;;;14.32;;
57969;SDS011;43777;42.656;23.264;2022-12-18T11:18:44;17.70;;;11.68;;
57969;SDS011;43777;42.656;23.264;2022-12-18T11:21:11;20.10;;;12.70;;
57969;SDS011;43777;42.656;23.264;2022-12-18T11:23:44;19.85;;;13.65;;
57969;SDS011;43777;42.656;23.264;2022-12-18T11:26:11;18.90;;;12.95;;
57969;SDS011;43777;42.656;23.264;2022-12-18T11:28:38;19.00;;;13.35;;
57969;SDS011;43777;42.656;23.264;2022-12-18T11:33:34;16.45;;;11.93;;
57969;SDS011;43777;42.656;23.264;2022-12-18T11:36:02;18.67;;;12.27;;
57969;SDS011;43777;42.656;23.264;2022-12-18T11:38:30;18.13;;;12.93;;
57969;SDS011;43777;42.656;23.264;2022-12-18T11:40:58;20.05;;;12.80;;
57969;SDS011;43777;42.656;23.264;2022-12-18T11:43:27;18.02;;;13.27;;
57969;SDS011;43777;42.656;23.264;2022-12-18T11:45:56;19.25;;;13.00;;
57969;SDS011;43777;42.656;23.264;2022-12-18T11:48:27;18.40;;;12.52;;
57969;SDS011;43777;42.656;23.264;2022-12-18T11:50:54;18.80;;;12.88;;
57969;SDS011;43777;42.656;23.264;2022-12-18T11:55:49;21.33;;;12.32;;
57969;SDS011;43777;42.656;23.264;2022-12-18T11:58:22;18.77;;;13.13;;
57969;SDS011;43777;42.656;23.264;2022-12-18T12:16:17;25.13;;;15.43;;
57969;SDS011;43777;42.656;23.264;2022-12-18T12:21:31;19.40;;;13.73;;
57969;SDS011;43777;42.656;23.264;2022-12-18T12:32:07;20.58;;;13.55;;
57969;SDS011;43777;42.656;23.264;2022-12-18T12:34:44;21.88;;;13.43;;
57969;SDS011;43777;42.656;23.264;2022-12-18T12:39:44;18.65;;;13.00;;
57969;SDS011;43777;42.656;23.264;2022-12-18T12:42:23;22.42;;;13.85;;
57969;SDS011;43777;42.656;23.264;2022-12-18T12:45:14;19.48;;;13.63;;
57969;SDS011;43777;42.656;23.264;2022-12-18T12:47:42;20.60;;;13.88;;
57969;SDS011;43777;42.656;23.264;2022-12-18T12:50:13;20.77;;;13.70;;
57969;SDS011;43777;42.656;23.264;2022-12-18T12:52:42;21.02;;;14.00;;
57969;SDS011;43777;42.656;23.264;2022-12-18T12:55:20;21.10;;;14.63;;
57969;SDS011;43777;42.656;23.264;2022-12-18T13:00:16;24.40;;;16.27;;
57969;SDS011;43777;42.656;23.264;2022-12-18T13:02:50;26.50;;;17.35;;
57969;SDS011;43777;42.656;23.264;2022-12-18T13:08:07;25.65;;;16.15;;
57969;SDS011;43777;42.656;23.264;2022-12-18T13:10:37;27.15;;;14.85;;
57969;SDS011;43777;42.656;23.264;2022-12-18T13:13:05;23.33;;;15.57;;
57969;SDS011;43777;42.656;23.264;2022-12-18T13:15:39;25.67;;;15.73;;
57969;SDS011;43777;42.656;23.264;2022-12-18T13:20:36;21.52;;;14.55;;
57969;SDS011;43777;42.656;23.264;2022-12-18T13:25:48;21.63;;;14.35;;
57969;SDS011;43777;42.656;23.264;2022-12-18T13:28:15;21.38;;;14.48;;
57969;SDS011;43777;42.656;23.264;2022-12-18T13:30:43;21.88;;;14.60;;
57969;SDS011;43777;42.656;23.264;2022-12-18T13:45:49;24.42;;;16.05;;
57969;SDS011;43777;42.656;23.264;2022-12-18T13:48:20;21.23;;;15.68;;
57969;SDS011;43777;42.656;23.264;2022-12-18T13:50:52;21.90;;;15.93;;
57969;SDS011;43777;42.656;23.264;2022-12-18T13:53:23;22.52;;;15.98;;
57969;SDS011;43777;42.656;23.264;2022-12-18T13:55:49;23.13;;;16.30;;
57969;SDS011;43777;42.656;23.264;2022-12-18T13:58:16;23.70;;;16.75;;
57969;SDS011;43777;42.656;23.264;2022-12-18T14:00:42;24.60;;;16.98;;
57969;SDS011;43777;42.656;23.264;2022-12-18T14:03:24;25.10;;;17.25;;
57969;SDS011;43777;42.656;23.264;2022-12-18T14:05:55;26.15;;;16.30;;
57969;SDS011;43777;42.656;23.264;2022-12-18T14:08:21;28.10;;;16.55;;
57969;SDS011;43777;42.656;23.264;2022-12-18T14:10:49;25.30;;;16.77;;
57969;SDS011;43777;42.656;23.264;2022-12-18T14:13:27;21.05;;;16.25;;
57969;SDS011;43777;42.656;23.264;2022-12-18T14:15:54;23.75;;;15.30;;
57969;SDS011;43777;42.656;23.264;2022-12-18T14:20:50;26.80;;;15.90;;
57969;SDS011;43777;42.656;23.264;2022-12-18T14:25:52;19.67;;;13.60;;
57969;SDS011;43777;42.656;23.264;2022-12-18T14:28:18;19.90;;;13.75;;
57969;SDS011;43777;42.656;23.264;2022-12-18T14:30:45;20.23;;;12.88;;
57969;SDS011;43777;42.656;23.264;2022-12-18T14:35:41;19.95;;;13.85;;
57969;SDS011;43777;42.656;23.264;2022-12-18T14:40:43;21.60;;;15.35;;
57969;SDS011;43777;42.656;23.264;2022-12-18T14:43:10;21.75;;;15.63;;
57969;SDS011;43777;42.656;23.264;2022-12-18T14:45:37;23.52;;;15.85;;
57969;SDS011;43777;42.656;23.264;2022-12-18T14:48:07;25.80;;;16.95;;
57969;SDS011;43777;42.656;23.264;2022-12-18T14:50:33;27.20;;;17.85;;
57969;SDS011;43777;42.656;23.264;2022-12-18T14:52:59;23.52;;;16.60;;
57969;SDS011;43777;42.656;23.264;2022-12-18T14:55:25;31.25;;;17.30;;
57969;SDS011;43777;42.656;23.264;2022-12-18T14:57:52;27.58;;;17.10;;
57969;SDS011;43777;42.656;23.264;2022-12-18T15:00:20;28.83;;;17.50;;
57969;SDS011;43777;42.656;23.264;2022-12-18T15:02:48;26.42;;;16.40;;
57969;SDS011;43777;42.656;23.264;2022-12-18T15:07:44;26.17;;;16.60;;
57969;SDS011;43777;42.656;23.264;2022-12-18T15:10:15;24.48;;;16.83;;
57969;SDS011;43777;42.656;23.264;2022-12-18T15:12:46;23.98;;;16.27;;
57969;SDS011;43777;42.656;23.264;2022-12-18T15:18:00;24.38;;;16.63;;
57969;SDS011;43777;42.656;23.264;2022-12-18T15:20:27;21.83;;;14.93;;
57969;SDS011;43777;42.656;23.264;2022-12-18T15:22:53;24.77;;;16.10;;
57969;SDS011;43777;42.656;23.264;2022-12-18T15:25:31;24.35;;;15.88;;
57969;SDS011;43777;42.656;23.264;2022-12-18T15:27:59;26.52;;;16.38;;
57969;SDS011;43777;42.656;23.264;2022-12-18T15:30:25;22.13;;;15.88;;
57969;SDS011;43777;42.656;23.264;2022-12-18T15:32:51;26.30;;;17.40;;
57969;SDS011;43777;42.656;23.264;2022-12-18T15:35:19;25.13;;;17.75;;
57969;SDS011;43777;42.656;23.264;2022-12-18T15:37:45;27.27;;;18.00;;
57969;SDS011;43777;42.656;23.264;2022-12-18T15:40:16;26.15;;;17.73;;
57969;SDS011;43777;42.656;23.264;2022-12-18T15:42:42;24.27;;;17.08;;
57969;SDS011;43777;42.656;23.264;2022-12-18T15:45:27;24.63;;;16.83;;
57969;SDS011;43777;42.656;23.264;2022-12-18T15:47:53;24.90;;;16.10;;
57969;SDS011;43777;42.656;23.264;2022-12-18T15:50:19;23.88;;;16.95;;
57969;SDS011;43777;42.656;23.264;2022-12-18T15:52:46;26.45;;;17.55;;
57969;SDS011;43777;42.656;23.264;2022-12-18T15:55:14;27.85;;;16.52;;
57969;SDS011;43777;42.656;23.264;2022-12-18T15:57:59;24.95;;;16.00;;
57969;SDS011;43777;42.656;23.264;2022-12-18T16:00:25;26.67;;;16.48;;
57969;SDS011;43777;42.656;23.264;2022-12-18T16:02:51;23.98;;;16.20;;
57969;SDS011;43777;42.656;23.264;2022-12-18T16:05:18;25.83;;;16.17;;
57969;SDS011;43777;42.656;23.264;2022-12-18T16:07:44;25.70;;;16.67;;
57969;SDS011;43777;42.656;23.264;2022-12-18T16:10:10;23.27;;;15.65;;
57969;SDS011;43777;42.656;23.264;2022-12-18T16:12:37;22.20;;;13.98;;
57969;SDS011;43777;42.656;23.264;2022-12-18T16:15:03;22.45;;;14.63;;
57969;SDS011;43777;42.656;23.264;2022-12-18T16:17:30;20.65;;;13.23;;